createdAt,value
2023-05-21T00:01:48.293Z,99961.69
2023-05-21T00:06:51.543Z,99962.50
2023-05-21T00:11:53.112Z,99953.94
2023-05-21T00:16:54.689Z,99959.97
2023-05-21T00:21:57.514Z,99956.31
2023-05-21T00:26:59.079Z,99942.78
2023-05-21T00:32:01.053Z,99940.53
2023-05-21T00:37:02.767Z,99932.56
2023-05-21T00:42:04.704Z,99929.75
2023-05-21T00:47:06.644Z,99915.38
2023-05-21T00:52:08.407Z,99910.66
2023-05-21T00:57:10.161Z,99918.59
2023-05-21T01:02:14.258Z,99916.09
2023-05-21T01:07:15.967Z,99914.16
2023-05-21T01:12:18.850Z,99903.38
2023-05-21T01:17:24.343Z,99907.75
2023-05-21T01:22:28.546Z,99908.88
2023-05-21T01:27:30.231Z,99899.50
2023-05-21T01:32:55.677Z,99910.25
2023-05-21T01:38:27.084Z,99910.53
2023-05-21T01:43:31.570Z,99903.38
2023-05-21T01:48:34.767Z,99906.03
2023-05-21T01:53:38.807Z,99895.41
2023-05-21T01:58:40.430Z,99888.44
2023-05-21T02:03:42.142Z,99890.81
2023-05-21T02:08:45.591Z,99887.72
2023-05-21T02:13:47.210Z,99885.19
2023-05-21T02:18:51.501Z,99876.78
2023-05-21T02:23:53.253Z,99871.44
2023-05-21T02:28:55.430Z,99867.81
2023-05-21T02:33:57.035Z,99860.59
2023-05-21T02:38:58.741Z,99869.28
2023-05-21T02:44:00.206Z,99871.16
2023-05-21T02:49:02.106Z,99865.84
2023-05-21T02:54:03.969Z,99863.78
2023-05-21T02:59:06.985Z,99860.66
2023-05-21T03:04:08.826Z,99856.75
2023-05-21T03:09:11.005Z,99853.09
2023-05-21T03:14:12.574Z,99863.78
2023-05-21T03:19:14.376Z,99855.16
2023-05-21T03:24:16.442Z,99847.88
2023-05-21T03:29:18.129Z,99852.50
2023-05-21T03:34:20.854Z,99851.88
2023-05-21T03:39:23.468Z,99851.16
2023-05-21T03:44:25.174Z,99848.28
2023-05-21T03:49:42.490Z,99863.13
2023-05-21T03:54:44.195Z,99867.22
2023-05-21T03:59:45.952Z,99879.25
2023-05-21T04:04:47.845Z,99885.00
2023-05-21T04:09:49.770Z,99881.44
2023-05-21T04:14:51.702Z,99885.34
2023-05-21T04:19:53.450Z,99891.06
2023-05-21T04:24:55.165Z,99888.09
2023-05-21T04:30:01.952Z,99898.25
2023-05-21T04:35:04.334Z,99892.22
2023-05-21T04:40:07.022Z,99904.50
2023-05-21T04:45:09.363Z,99909.69
2023-05-21T04:50:13.646Z,99907.59
2023-05-21T04:55:15.480Z,99909.88
2023-05-21T05:00:17.622Z,99911.13
2023-05-21T05:05:20.467Z,99912.88
2023-05-21T05:10:22.341Z,99914.31
2023-05-21T05:15:24.113Z,99917.91
2023-05-21T05:20:26.726Z,99912.88
2023-05-21T05:25:28.311Z,99907.50
2023-05-21T05:30:29.948Z,99911.75
2023-05-21T05:35:39.323Z,99912.63
2023-05-21T05:40:41.683Z,99899.41
2023-05-21T05:45:43.585Z,99900.75
2023-05-21T05:50:48.604Z,99892.72
2023-05-21T05:55:50.398Z,99894.88
2023-05-21T06:00:52.494Z,99890.47
2023-05-21T06:05:54.296Z,99885.75
2023-05-21T06:10:55.970Z,99883.53
2023-05-21T06:15:59.944Z,99889.03
2023-05-21T06:21:01.727Z,99892.81
2023-05-21T06:26:04.541Z,99889.16
2023-05-21T06:31:07.087Z,99901.25
2023-05-21T06:36:11.325Z,99890.13
2023-05-21T06:41:12.956Z,99891.16
2023-05-21T06:46:23.988Z,99888.31
2023-05-21T06:51:27.126Z,99884.03
2023-05-21T06:56:29.551Z,99886.66
2023-05-21T07:01:32.567Z,99881.34
2023-05-21T07:06:35.414Z,99874.94
2023-05-21T07:11:38.970Z,99877.78
2023-05-21T07:16:42.585Z,99880.72
2023-05-21T07:21:44.389Z,99879.09
2023-05-21T07:26:46.224Z,99877.00
2023-05-21T07:31:48.133Z,99876.59
2023-05-21T07:36:52.301Z,99867.84
2023-05-21T07:41:54.023Z,99866.03
2023-05-21T07:46:56.163Z,99860.44
2023-05-21T07:52:01.214Z,99845.72
2023-05-21T07:57:02.989Z,99850.44
2023-05-21T08:02:26.640Z,99843.50
2023-05-21T08:07:28.769Z,99837.19
2023-05-21T08:12:30.504Z,99848.63
2023-05-21T08:17:32.470Z,99842.56
2023-05-21T08:22:34.920Z,99846.88
2023-05-21T08:27:36.693Z,99837.41
2023-05-21T08:32:38.825Z,99849.06
2023-05-21T08:37:40.705Z,99838.63
2023-05-21T08:42:51.637Z,99844.09
2023-05-21T08:48:08.093Z,99847.06
2023-05-21T08:53:19.759Z,99841.09
2023-05-21T08:58:26.087Z,99835.81
2023-05-21T09:03:29.379Z,99849.25
2023-05-21T09:08:35.177Z,99848.91
2023-05-21T09:13:44.969Z,99849.13
2023-05-21T09:18:55.069Z,99842.88
2023-05-21T09:24:04.236Z,99849.06
2023-05-21T09:29:06.050Z,99848.50
2023-05-21T09:34:07.640Z,99826.03
2023-05-21T09:39:11.881Z,99839.22
2023-05-21T09:44:14.070Z,99827.72
2023-05-21T09:49:26.331Z,99827.78
2023-05-21T09:54:33.388Z,99827.97
2023-05-21T09:59:41.176Z,99815.88
2023-05-21T10:04:44.684Z,99817.16
2023-05-21T10:09:50.671Z,99802.00
2023-05-21T10:15:00.265Z,99819.28
2023-05-21T10:20:03.443Z,99804.63
2023-05-21T10:25:07.771Z,99803.44
2023-05-21T10:30:10.150Z,99802.28
2023-05-21T10:35:13.784Z,99802.47
2023-05-21T10:40:15.634Z,99787.00
2023-05-21T10:45:25.985Z,99788.00
2023-05-21T10:50:39.882Z,99784.25
2023-05-21T10:55:50.518Z,99797.25
2023-05-21T11:00:54.227Z,99807.31
2023-05-21T11:05:56.995Z,99800.84
2023-05-21T11:10:59.388Z,99795.66
2023-05-21T11:16:05.450Z,99794.28
2023-05-21T11:21:11.965Z,99789.56
2023-05-21T11:26:16.335Z,99786.47
2023-05-21T11:31:28.068Z,99797.75
2023-05-21T11:36:30.408Z,99781.97
2023-05-21T11:42:09.713Z,99790.72
2023-05-21T11:47:14.909Z,99779.03
2023-05-21T11:52:16.580Z,99791.47
2023-05-21T11:57:19.457Z,99804.66
2023-05-21T12:02:22.313Z,99795.06
2023-05-21T12:07:23.932Z,99804.44
2023-05-21T12:12:30.815Z,99802.91
2023-05-21T12:17:37.152Z,99813.34
2023-05-21T12:22:43.237Z,99801.06
2023-05-21T12:27:45.123Z,99791.94
2023-05-21T12:32:46.871Z,99795.50
2023-05-21T12:37:50.821Z,99785.66
2023-05-21T12:42:52.693Z,99783.31
2023-05-21T12:47:56.497Z,99789.47
2023-05-21T12:52:58.746Z,99781.13
2023-05-21T12:58:05.585Z,99792.41
2023-05-21T13:03:07.501Z,99791.16
2023-05-21T13:08:10.647Z,99787.88
2023-05-21T13:13:12.294Z,99787.66
2023-05-21T13:18:14.828Z,99790.31
2023-05-21T13:23:16.554Z,99789.28
2023-05-21T13:28:18.222Z,99788.47
2023-05-21T13:33:20.036Z,99793.97
2023-05-21T13:38:21.763Z,99785.56
2023-05-21T13:43:25.562Z,99781.94
2023-05-21T13:48:27.139Z,99776.38
2023-05-21T13:53:28.714Z,99786.16
2023-05-21T13:58:34.515Z,99786.72
2023-05-21T14:03:36.115Z,99784.69
2023-05-21T14:08:40.118Z,99781.66
2023-05-21T14:13:42.179Z,99785.69
2023-05-21T14:18:43.803Z,99775.72
2023-05-21T14:23:45.622Z,99771.19
2023-05-21T14:28:47.206Z,99771.22
2023-05-21T14:33:49.028Z,99767.28
2023-05-21T14:38:50.809Z,99759.69
2023-05-21T14:43:52.823Z,99752.97
2023-05-21T14:48:55.547Z,99747.25
2023-05-21T14:53:57.698Z,99734.63
2023-05-21T14:58:59.388Z,99736.84
2023-05-21T15:04:02.759Z,99735.44
2023-05-21T15:09:04.475Z,99732.16
2023-05-21T15:14:06.087Z,99732.59
2023-05-21T15:19:07.734Z,99723.59
2023-05-21T15:24:11.711Z,99730.00
2023-05-21T15:29:13.304Z,99730.13
2023-05-21T15:34:15.308Z,99722.56
2023-05-21T15:39:17.010Z,99722.53
2023-05-21T15:44:18.577Z,99729.66
2023-05-21T15:49:20.709Z,99730.88
2023-05-21T15:54:22.289Z,99725.19
2023-05-21T15:59:25.678Z,99727.25
2023-05-21T16:04:27.306Z,99732.91
2023-05-21T16:09:28.897Z,99734.06
2023-05-21T16:14:30.525Z,99732.44
2023-05-21T16:19:32.304Z,99725.75
2023-05-21T16:24:33.991Z,99726.16
2023-05-21T16:29:35.599Z,99726.78
2023-05-21T16:34:37.203Z,99735.66
2023-05-21T16:39:38.793Z,99727.25
2023-05-21T16:44:40.851Z,99731.22
2023-05-21T16:49:42.430Z,99737.91
2023-05-21T16:54:48.715Z,99737.38
2023-05-21T16:59:50.374Z,99728.81
2023-05-21T17:04:51.960Z,99728.53
2023-05-21T17:09:53.587Z,99728.44
2023-05-21T17:14:55.224Z,99732.09
2023-05-21T17:19:56.854Z,99730.13
2023-05-21T17:24:58.846Z,99734.97
2023-05-21T17:30:00.395Z,99737.66
2023-05-21T17:35:02.578Z,99740.97
2023-05-21T17:40:05.703Z,99742.97
2023-05-21T17:45:07.670Z,99755.69
2023-05-21T17:50:09.668Z,99763.44
2023-05-21T17:55:11.320Z,99759.28
2023-05-21T18:00:13.291Z,99748.50
2023-05-21T18:05:14.917Z,99748.09
2023-05-21T18:10:16.558Z,99753.47
2023-05-21T18:15:18.148Z,99762.06
2023-05-21T18:20:19.756Z,99754.66
2023-05-21T18:25:21.662Z,99761.72
2023-05-21T18:30:23.268Z,99761.34
2023-05-21T18:35:24.815Z,99764.03
2023-05-21T18:40:30.469Z,99770.81
2023-05-21T18:45:32.965Z,99767.91
2023-05-21T18:50:37.047Z,99772.09
2023-05-21T18:55:38.865Z,99771.78
2023-05-21T19:00:43.378Z,99774.44
2023-05-21T19:05:45.281Z,99778.03
2023-05-21T19:10:46.957Z,99776.50
2023-05-21T19:15:48.989Z,99777.66
2023-05-21T19:20:50.671Z,99779.44
2023-05-21T19:25:52.271Z,99775.09
2023-05-21T19:30:53.902Z,99777.44
2023-05-21T19:35:55.522Z,99790.00
2023-05-21T19:40:57.089Z,99799.69
2023-05-21T19:45:58.719Z,99800.75
2023-05-21T19:51:00.636Z,99807.56
2023-05-21T19:56:02.346Z,99805.22
2023-05-21T20:01:06.056Z,99801.41
2023-05-21T20:06:07.662Z,99812.88
2023-05-21T20:11:09.287Z,99807.44
2023-05-21T20:16:12.669Z,99810.22
2023-05-21T20:21:18.320Z,99808.59
2023-05-21T20:26:20.108Z,99806.16
2023-05-21T20:31:22.085Z,99814.16
2023-05-21T20:36:23.914Z,99815.03
2023-05-21T20:41:25.573Z,99815.06
2023-05-21T20:46:28.123Z,99812.59
2023-05-21T20:51:30.928Z,99820.34
2023-05-21T21:01:37.868Z,99826.44
2023-05-21T21:06:40.451Z,99830.84
2023-05-21T21:11:42.169Z,99827.00
2023-05-21T21:16:44.078Z,99839.38
2023-05-21T21:21:47.605Z,99843.50
2023-05-21T21:26:49.265Z,99848.97
2023-05-21T21:31:51.886Z,99852.53
2023-05-21T21:36:54.267Z,99851.66
2023-05-21T21:41:55.869Z,99855.50
2023-05-21T21:46:57.504Z,99845.50
2023-05-21T21:51:59.168Z,99862.34
2023-05-21T21:57:00.887Z,99857.91
2023-05-21T22:02:02.511Z,99861.16
2023-05-21T22:07:04.103Z,99856.38
2023-05-21T22:12:07.738Z,99858.81
2023-05-21T22:17:09.449Z,99867.84
2023-05-21T22:22:12.138Z,99862.22
2023-05-21T22:27:13.705Z,99870.16
2023-05-21T22:32:15.301Z,99875.59
2023-05-21T22:37:17.892Z,99873.66
2023-05-21T22:42:19.619Z,99869.75
2023-05-21T22:47:23.908Z,99875.03
2023-05-21T22:52:25.626Z,99883.59
2023-05-21T22:57:27.681Z,99881.28
2023-05-21T23:02:29.337Z,99878.19
2023-05-21T23:07:30.961Z,99887.50
2023-05-21T23:12:32.670Z,99871.16
2023-05-21T23:17:34.342Z,99877.91
2023-05-21T23:22:36.279Z,99874.22
2023-05-21T23:27:37.885Z,99873.59
2023-05-21T23:32:39.554Z,99878.22
2023-05-21T23:37:41.165Z,99882.81
2023-05-21T23:42:43.400Z,99878.34
2023-05-21T23:47:45.038Z,99878.81
2023-05-21T23:52:46.725Z,99869.34
2023-05-21T23:57:48.289Z,99871.44
